sensor_id;sensor_type;location;lat;lon;timestamp;P1;durP1;ratioP1;P2;durP2;ratioP2
18647;SDS011;9453;50.294;18.644;2022-12-07T05:02:46;15.90;;;7.40;;
18647;SDS011;9453;50.294;18.644;2022-12-07T05:05:13;16.63;;;7.90;;
18647;SDS011;9453;50.294;18.644;2022-12-07T05:07:41;18.30;;;7.63;;
18647;SDS011;9453;50.294;18.644;2022-12-07T05:10:08;19.07;;;8.43;;
18647;SDS011;9453;50.294;18.644;2022-12-07T05:12:35;18.47;;;8.87;;
18647;SDS011;9453;50.294;18.644;2022-12-07T05:15:03;21.00;;;9.37;;
18647;SDS011;9453;50.294;18.644;2022-12-07T05:17:30;22.13;;;9.97;;
18647;SDS011;9453;50.294;18.644;2022-12-07T05:19:59;16.63;;;8.27;;
18647;SDS011;9453;50.294;18.644;2022-12-07T05:22:26;21.33;;;10.77;;
18647;SDS011;9453;50.294;18.644;2022-12-07T05:24:53;20.43;;;9.90;;
18647;SDS011;9453;50.294;18.644;2022-12-07T05:27:20;17.90;;;9.53;;
18647;SDS011;9453;50.294;18.644;2022-12-07T05:29:49;21.73;;;9.23;;
18647;SDS011;9453;50.294;18.644;2022-12-07T05:32:16;20.50;;;10.13;;
18647;SDS011;9453;50.294;18.644;2022-12-07T05:34:44;23.60;;;9.53;;
18647;SDS011;9453;50.294;18.644;2022-12-07T05:37:12;31.73;;;11.33;;
18647;SDS011;9453;50.294;18.644;2022-12-07T05:39:40;28.63;;;11.37;;
18647;SDS011;9453;50.294;18.644;2022-12-07T05:42:08;21.00;;;9.47;;
18647;SDS011;9453;50.294;18.644;2022-12-07T05:44:38;25.23;;;10.23;;
18647;SDS011;9453;50.294;18.644;2022-12-07T05:47:05;25.93;;;10.03;;
18647;SDS011;9453;50.294;18.644;2022-12-07T05:49:32;20.87;;;9.10;;
18647;SDS011;9453;50.294;18.644;2022-12-07T05:51:59;17.33;;;8.47;;
18647;SDS011;9453;50.294;18.644;2022-12-07T05:54:28;16.73;;;8.17;;
18647;SDS011;9453;50.294;18.644;2022-12-07T05:56:55;17.60;;;7.97;;
18647;SDS011;9453;50.294;18.644;2022-12-07T05:59:22;20.23;;;8.20;;
18647;SDS011;9453;50.294;18.644;2022-12-07T06:01:48;15.50;;;7.67;;
18647;SDS011;9453;50.294;18.644;2022-12-07T06:04:15;16.57;;;8.23;;
18647;SDS011;9453;50.294;18.644;2022-12-07T06:06:42;17.93;;;8.47;;
18647;SDS011;9453;50.294;18.644;2022-12-07T06:09:10;19.37;;;8.33;;
18647;SDS011;9453;50.294;18.644;2022-12-07T06:11:40;17.53;;;8.00;;
18647;SDS011;9453;50.294;18.644;2022-12-07T06:14:25;18.63;;;8.80;;
18647;SDS011;9453;50.294;18.644;2022-12-07T06:16:52;17.60;;;9.10;;
18647;SDS011;9453;50.294;18.644;2022-12-07T06:19:19;16.87;;;8.77;;
18647;SDS011;9453;50.294;18.644;2022-12-07T06:21:46;19.00;;;8.97;;
18647;SDS011;9453;50.294;18.644;2022-12-07T06:24:15;20.13;;;9.10;;
18647;SDS011;9453;50.294;18.644;2022-12-07T06:26:44;19.57;;;9.37;;
18647;SDS011;9453;50.294;18.644;2022-12-07T06:29:11;23.20;;;9.20;;
18647;SDS011;9453;50.294;18.644;2022-12-07T06:31:39;19.90;;;8.13;;
18647;SDS011;9453;50.294;18.644;2022-12-07T06:34:07;21.10;;;9.20;;
18647;SDS011;9453;50.294;18.644;2022-12-07T06:36:36;17.83;;;7.93;;
18647;SDS011;9453;50.294;18.644;2022-12-07T06:39:03;16.53;;;8.20;;
18647;SDS011;9453;50.294;18.644;2022-12-07T06:41:31;18.03;;;8.23;;
18647;SDS011;9453;50.294;18.644;2022-12-07T06:44:00;18.87;;;8.97;;
18647;SDS011;9453;50.294;18.644;2022-12-07T06:46:26;20.30;;;9.03;;
18647;SDS011;9453;50.294;18.644;2022-12-07T06:48:54;24.23;;;10.53;;
18647;SDS011;9453;50.294;18.644;2022-12-07T06:51:21;21.23;;;10.13;;
18647;SDS011;9453;50.294;18.644;2022-12-07T06:53:50;21.67;;;10.07;;
18647;SDS011;9453;50.294;18.644;2022-12-07T06:56:17;25.30;;;9.80;;
18647;SDS011;9453;50.294;18.644;2022-12-07T06:58:44;22.40;;;9.97;;
18647;SDS011;9453;50.294;18.644;2022-12-07T07:01:13;22.93;;;10.10;;
18647;SDS011;9453;50.294;18.644;2022-12-07T07:03:41;26.93;;;11.63;;
18647;SDS011;9453;50.294;18.644;2022-12-07T07:06:08;24.50;;;10.23;;
18647;SDS011;9453;50.294;18.644;2022-12-07T07:08:36;23.03;;;10.73;;
18647;SDS011;9453;50.294;18.644;2022-12-07T07:11:04;24.20;;;11.60;;
18647;SDS011;9453;50.294;18.644;2022-12-07T07:13:32;29.50;;;12.27;;
18647;SDS011;9453;50.294;18.644;2022-12-07T07:15:59;21.23;;;10.10;;
18647;SDS011;9453;50.294;18.644;2022-12-07T07:18:28;22.73;;;11.23;;
18647;SDS011;9453;50.294;18.644;2022-12-07T07:20:55;24.70;;;10.80;;
18647;SDS011;9453;50.294;18.644;2022-12-07T07:23:22;24.53;;;11.17;;
18647;SDS011;9453;50.294;18.644;2022-12-07T07:25:49;24.70;;;11.43;;
18647;SDS011;9453;50.294;18.644;2022-12-07T07:28:16;21.73;;;10.37;;
18647;SDS011;9453;50.294;18.644;2022-12-07T07:30:43;25.83;;;11.43;;
18647;SDS011;9453;50.294;18.644;2022-12-07T07:33:10;31.00;;;11.97;;
18647;SDS011;9453;50.294;18.644;2022-12-07T07:35:39;36.73;;;13.83;;
18647;SDS011;9453;50.294;18.644;2022-12-07T07:38:06;33.03;;;12.60;;
18647;SDS011;9453;50.294;18.644;2022-12-07T07:40:34;17.63;;;9.47;;
18647;SDS011;9453;50.294;18.644;2022-12-07T07:43:01;19.53;;;9.40;;
18647;SDS011;9453;50.294;18.644;2022-12-07T07:45:29;22.27;;;9.47;;
18647;SDS011;9453;50.294;18.644;2022-12-07T07:47:56;15.73;;;8.30;;
18647;SDS011;9453;50.294;18.644;2022-12-07T07:50:23;15.93;;;8.77;;
18647;SDS011;9453;50.294;18.644;2022-12-07T07:52:51;12.53;;;7.73;;
18647;SDS011;9453;50.294;18.644;2022-12-07T07:55:18;16.73;;;8.47;;
18647;SDS011;9453;50.294;18.644;2022-12-07T07:57:45;13.50;;;7.50;;
18647;SDS011;9453;50.294;18.644;2022-12-07T08:00:13;15.10;;;8.23;;
18647;SDS011;9453;50.294;18.644;2022-12-07T08:02:41;18.73;;;8.17;;
18647;SDS011;9453;50.294;18.644;2022-12-07T08:05:09;15.07;;;7.60;;
18647;SDS011;9453;50.294;18.644;2022-12-07T08:07:37;16.33;;;7.77;;
18647;SDS011;9453;50.294;18.644;2022-12-07T08:10:07;18.30;;;8.30;;
18647;SDS011;9453;50.294;18.644;2022-12-07T08:12:36;14.83;;;7.17;;
18647;SDS011;9453;50.294;18.644;2022-12-07T08:15:25;13.20;;;6.77;;
18647;SDS011;9453;50.294;18.644;2022-12-07T08:17:52;18.57;;;7.67;;
18647;SDS011;9453;50.294;18.644;2022-12-07T08:20:19;18.07;;;7.10;;
18647;SDS011;9453;50.294;18.644;2022-12-07T08:22:46;16.93;;;7.07;;
18647;SDS011;9453;50.294;18.644;2022-12-07T08:25:15;13.90;;;7.10;;
18647;SDS011;9453;50.294;18.644;2022-12-07T08:27:42;18.30;;;6.97;;
18647;SDS011;9453;50.294;18.644;2022-12-07T08:30:09;23.40;;;9.60;;
18647;SDS011;9453;50.294;18.644;2022-12-07T08:32:37;16.40;;;7.23;;
18647;SDS011;9453;50.294;18.644;2022-12-07T08:35:04;14.50;;;7.27;;
18647;SDS011;9453;50.294;18.644;2022-12-07T08:37:31;17.97;;;7.30;;
18647;SDS011;9453;50.294;18.644;2022-12-07T08:39:58;16.50;;;7.63;;
18647;SDS011;9453;50.294;18.644;2022-12-07T08:42:27;15.20;;;7.50;;
18647;SDS011;9453;50.294;18.644;2022-12-07T08:44:55;15.87;;;7.37;;
18647;SDS011;9453;50.294;18.644;2022-12-07T08:47:23;20.37;;;7.77;;
18647;SDS011;9453;50.294;18.644;2022-12-07T08:49:51;18.20;;;7.53;;
18647;SDS011;9453;50.294;18.644;2022-12-07T08:52:20;14.90;;;6.83;;
18647;SDS011;9453;50.294;18.644;2022-12-07T08:54:47;18.33;;;7.17;;
18647;SDS011;9453;50.294;18.644;2022-12-07T08:57:14;14.53;;;7.23;;
18647;SDS011;9453;50.294;18.644;2022-12-07T08:59:43;15.23;;;7.30;;
18647;SDS011;9453;50.294;18.644;2022-12-07T09:02:10;14.50;;;6.93;;
18647;SDS011;9453;50.294;18.644;2022-12-07T09:04:37;17.00;;;6.43;;
18647;SDS011;9453;50.294;18.644;2022-12-07T09:07:04;13.47;;;6.80;;
18647;SDS011;9453;50.294;18.644;2022-12-07T09:09:31;17.10;;;7.07;;
18647;SDS011;9453;50.294;18.644;2022-12-07T09:11:58;13.00;;;5.97;;
18647;SDS011;9453;50.294;18.644;2022-12-07T09:14:25;12.17;;;5.53;;
18647;SDS011;9453;50.294;18.644;2022-12-07T09:16:53;15.63;;;6.20;;
18647;SDS011;9453;50.294;18.644;2022-12-07T09:19:20;13.83;;;5.87;;
18647;SDS011;9453;50.294;18.644;2022-12-07T09:21:47;13.20;;;5.87;;
18647;SDS011;9453;50.294;18.644;2022-12-07T09:24:14;12.87;;;6.40;;
18647;SDS011;9453;50.294;18.644;2022-12-07T09:26:41;14.93;;;6.50;;
18647;SDS011;9453;50.294;18.644;2022-12-07T09:29:09;15.33;;;6.57;;
18647;SDS011;9453;50.294;18.644;2022-12-07T09:31:36;14.13;;;5.83;;
18647;SDS011;9453;50.294;18.644;2022-12-07T09:34:05;18.00;;;7.47;;
18647;SDS011;9453;50.294;18.644;2022-12-07T09:36:32;12.67;;;6.60;;
18647;SDS011;9453;50.294;18.644;2022-12-07T09:39:00;17.10;;;7.30;;
18647;SDS011;9453;50.294;18.644;2022-12-07T09:41:29;18.63;;;8.20;;
18647;SDS011;9453;50.294;18.644;2022-12-07T09:44:00;17.73;;;8.37;;
18647;SDS011;9453;50.294;18.644;2022-12-07T09:49:01;20.10;;;8.40;;
18647;SDS011;9453;50.294;18.644;2022-12-07T09:51:30;20.13;;;8.50;;
18647;SDS011;9453;50.294;18.644;2022-12-07T09:53:58;18.73;;;8.30;;
18647;SDS011;9453;50.294;18.644;2022-12-07T09:56:28;18.70;;;8.30;;
18647;SDS011;9453;50.294;18.644;2022-12-07T09:58:58;17.67;;;7.80;;
18647;SDS011;9453;50.294;18.644;2022-12-07T10:01:30;20.57;;;8.20;;
18647;SDS011;9453;50.294;18.644;2022-12-07T10:04:00;23.30;;;9.47;;
18647;SDS011;9453;50.294;18.644;2022-12-07T10:06:37;18.70;;;8.33;;
18647;SDS011;9453;50.294;18.644;2022-12-07T10:09:08;19.57;;;8.60;;
18647;SDS011;9453;50.294;18.644;2022-12-07T10:14:25;23.07;;;9.20;;
18647;SDS011;9453;50.294;18.644;2022-12-07T10:16:54;25.90;;;9.37;;
18647;SDS011;9453;50.294;18.644;2022-12-07T10:19:23;23.37;;;8.93;;
18647;SDS011;9453;50.294;18.644;2022-12-07T10:22:03;18.13;;;8.00;;
18647;SDS011;9453;50.294;18.644;2022-12-07T10:24:37;24.07;;;10.17;;
18647;SDS011;9453;50.294;18.644;2022-12-07T10:27:09;23.60;;;9.53;;
18647;SDS011;9453;50.294;18.644;2022-12-07T10:29:47;19.53;;;8.50;;
18647;SDS011;9453;50.294;18.644;2022-12-07T10:32:28;21.53;;;8.90;;
18647;SDS011;9453;50.294;18.644;2022-12-07T10:37:49;16.20;;;7.47;;
18647;SDS011;9453;50.294;18.644;2022-12-07T10:40:30;17.80;;;7.63;;
18647;SDS011;9453;50.294;18.644;2022-12-07T10:43:12;18.17;;;7.70;;
18647;SDS011;9453;50.294;18.644;2022-12-07T10:45:55;15.60;;;6.40;;
18647;SDS011;9453;50.294;18.644;2022-12-07T10:48:37;18.77;;;8.23;;
18647;SDS011;9453;50.294;18.644;2022-12-07T10:51:14;13.97;;;6.83;;
18647;SDS011;9453;50.294;18.644;2022-12-07T10:53:52;18.20;;;7.70;;
18647;SDS011;9453;50.294;18.644;2022-12-07T10:56:29;18.53;;;7.97;;
18647;SDS011;9453;50.294;18.644;2022-12-07T11:05:20;16.90;;;7.07;;
18647;SDS011;9453;50.294;18.644;2022-12-07T11:07:57;13.47;;;6.17;;
18647;SDS011;9453;50.294;18.644;2022-12-07T11:10:35;13.47;;;6.50;;
18647;SDS011;9453;50.294;18.644;2022-12-07T11:16:08;15.77;;;7.00;;
18647;SDS011;9453;50.294;18.644;2022-12-07T11:18:57;13.00;;;6.07;;
18647;SDS011;9453;50.294;18.644;2022-12-07T11:21:35;14.03;;;6.00;;
18647;SDS011;9453;50.294;18.644;2022-12-07T11:24:10;14.30;;;6.43;;
18647;SDS011;9453;50.294;18.644;2022-12-07T11:32:44;14.67;;;5.60;;
18647;SDS011;9453;50.294;18.644;2022-12-07T11:35:22;15.70;;;6.00;;
18647;SDS011;9453;50.294;18.644;2022-12-07T11:37:57;13.77;;;5.60;;
18647;SDS011;9453;50.294;18.644;2022-12-07T11:40:29;9.83;;;5.10;;
18647;SDS011;9453;50.294;18.644;2022-12-07T11:43:04;10.23;;;4.73;;
18647;SDS011;9453;50.294;18.644;2022-12-07T11:45:40;8.47;;;4.50;;
18647;SDS011;9453;50.294;18.644;2022-12-07T11:48:10;13.13;;;5.23;;
18647;SDS011;9453;50.294;18.644;2022-12-07T11:50:42;11.40;;;5.27;;
18647;SDS011;9453;50.294;18.644;2022-12-07T11:53:15;9.73;;;4.57;;
18647;SDS011;9453;50.294;18.644;2022-12-07T11:55:46;7.20;;;4.33;;
18647;SDS011;9453;50.294;18.644;2022-12-07T11:58:27;10.67;;;4.93;;
18647;SDS011;9453;50.294;18.644;2022-12-07T12:01:11;8.93;;;4.47;;
18647;SDS011;9453;50.294;18.644;2022-12-07T12:03:45;9.43;;;4.80;;
18647;SDS011;9453;50.294;18.644;2022-12-07T12:06:13;11.73;;;5.40;;
18647;SDS011;9453;50.294;18.644;2022-12-07T12:08:42;8.27;;;4.67;;
18647;SDS011;9453;50.294;18.644;2022-12-07T12:11:17;9.70;;;4.77;;
18647;SDS011;9453;50.294;18.644;2022-12-07T12:14:02;7.83;;;4.63;;
18647;SDS011;9453;50.294;18.644;2022-12-07T12:16:46;9.37;;;5.00;;
18647;SDS011;9453;50.294;18.644;2022-12-07T12:19:34;10.17;;;5.07;;
18647;SDS011;9453;50.294;18.644;2022-12-07T12:22:06;8.00;;;4.53;;
18647;SDS011;9453;50.294;18.644;2022-12-07T12:24:38;11.57;;;5.23;;
18647;SDS011;9453;50.294;18.644;2022-12-07T12:27:08;11.63;;;5.17;;
18647;SDS011;9453;50.294;18.644;2022-12-07T12:29:44;9.50;;;4.63;;
18647;SDS011;9453;50.294;18.644;2022-12-07T12:32:13;12.57;;;4.23;;
18647;SDS011;9453;50.294;18.644;2022-12-07T12:34:57;10.17;;;4.10;;
18647;SDS011;9453;50.294;18.644;2022-12-07T12:37:40;6.73;;;4.17;;
18647;SDS011;9453;50.294;18.644;2022-12-07T12:49:16;6.37;;;3.50;;
18647;SDS011;9453;50.294;18.644;2022-12-07T12:52:05;6.97;;;3.63;;
18647;SDS011;9453;50.294;18.644;2022-12-07T12:55:15;7.17;;;3.63;;
18647;SDS011;9453;50.294;18.644;2022-12-07T12:57:46;6.63;;;3.53;;
18647;SDS011;9453;50.294;18.644;2022-12-07T13:00:18;7.83;;;4.00;;
18647;SDS011;9453;50.294;18.644;2022-12-07T13:02:48;7.63;;;4.23;;
18647;SDS011;9453;50.294;18.644;2022-12-07T13:05:19;7.10;;;3.97;;
18647;SDS011;9453;50.294;18.644;2022-12-07T13:07:54;6.20;;;3.23;;
18647;SDS011;9453;50.294;18.644;2022-12-07T13:10:34;6.63;;;3.57;;
18647;SDS011;9453;50.294;18.644;2022-12-07T13:13:08;8.77;;;4.10;;
18647;SDS011;9453;50.294;18.644;2022-12-07T13:22:39;14.13;;;6.73;;
18647;SDS011;9453;50.294;18.644;2022-12-07T13:25:10;11.17;;;5.37;;
18647;SDS011;9453;50.294;18.644;2022-12-07T13:27:39;11.87;;;5.50;;
18647;SDS011;9453;50.294;18.644;2022-12-07T13:30:12;12.67;;;5.03;;
18647;SDS011;9453;50.294;18.644;2022-12-07T13:32:42;10.13;;;4.40;;
18647;SDS011;9453;50.294;18.644;2022-12-07T13:35:28;9.37;;;4.60;;
18647;SDS011;9453;50.294;18.644;2022-12-07T13:37:56;8.77;;;4.27;;
18647;SDS011;9453;50.294;18.644;2022-12-07T13:40:23;10.47;;;4.93;;
18647;SDS011;9453;50.294;18.644;2022-12-07T13:42:56;15.10;;;5.70;;
18647;SDS011;9453;50.294;18.644;2022-12-07T13:45:25;11.57;;;5.27;;
18647;SDS011;9453;50.294;18.644;2022-12-07T13:48:16;10.67;;;4.80;;
18647;SDS011;9453;50.294;18.644;2022-12-07T13:50:55;10.47;;;5.07;;
18647;SDS011;9453;50.294;18.644;2022-12-07T13:53:23;7.40;;;4.57;;
18647;SDS011;9453;50.294;18.644;2022-12-07T13:55:53;9.90;;;4.50;;
18647;SDS011;9453;50.294;18.644;2022-12-07T13:58:20;9.27;;;4.57;;
18647;SDS011;9453;50.294;18.644;2022-12-07T14:00:48;10.17;;;4.60;;
18647;SDS011;9453;50.294;18.644;2022-12-07T14:03:27;8.90;;;4.80;;
18647;SDS011;9453;50.294;18.644;2022-12-07T14:09:08;9.53;;;4.43;;
18647;SDS011;9453;50.294;18.644;2022-12-07T14:11:42;11.07;;;4.80;;
18647;SDS011;9453;50.294;18.644;2022-12-07T14:14:10;10.00;;;5.17;;
18647;SDS011;9453;50.294;18.644;2022-12-07T14:16:42;10.73;;;6.40;;
18647;SDS011;9453;50.294;18.644;2022-12-07T14:25:14;15.27;;;7.13;;
18647;SDS011;9453;50.294;18.644;2022-12-07T14:27:47;17.53;;;7.37;;
18647;SDS011;9453;50.294;18.644;2022-12-07T14:30:16;14.53;;;7.23;;
18647;SDS011;9453;50.294;18.644;2022-12-07T14:32:44;19.10;;;8.60;;
18647;SDS011;9453;50.294;18.644;2022-12-07T14:35:15;24.60;;;10.13;;
18647;SDS011;9453;50.294;18.644;2022-12-07T14:37:44;26.37;;;10.37;;
18647;SDS011;9453;50.294;18.644;2022-12-07T14:40:14;20.03;;;8.20;;
18647;SDS011;9453;50.294;18.644;2022-12-07T14:42:43;19.77;;;7.73;;
18647;SDS011;9453;50.294;18.644;2022-12-07T14:45:15;17.70;;;7.27;;
18647;SDS011;9453;50.294;18.644;2022-12-07T14:47:43;16.03;;;7.50;;
18647;SDS011;9453;50.294;18.644;2022-12-07T14:50:11;17.77;;;7.37;;
18647;SDS011;9453;50.294;18.644;2022-12-07T14:52:41;20.77;;;8.20;;
18647;SDS011;9453;50.294;18.644;2022-12-07T14:55:13;17.30;;;7.83;;
18647;SDS011;9453;50.294;18.644;2022-12-07T14:57:42;16.13;;;6.83;;
18647;SDS011;9453;50.294;18.644;2022-12-07T15:00:13;17.23;;;7.57;;
18647;SDS011;9453;50.294;18.644;2022-12-07T15:02:42;15.67;;;6.47;;
18647;SDS011;9453;50.294;18.644;2022-12-07T15:05:09;18.40;;;8.20;;
18647;SDS011;9453;50.294;18.644;2022-12-07T15:07:37;27.87;;;9.53;;
18647;SDS011;9453;50.294;18.644;2022-12-07T15:10:09;25.73;;;9.07;;
18647;SDS011;9453;50.294;18.644;2022-12-07T15:12:41;22.93;;;9.13;;
18647;SDS011;9453;50.294;18.644;2022-12-07T15:15:08;25.90;;;9.77;;
18647;SDS011;9453;50.294;18.644;2022-12-07T15:17:36;26.80;;;11.40;;
18647;SDS011;9453;50.294;18.644;2022-12-07T15:20:03;25.93;;;11.60;;
18647;SDS011;9453;50.294;18.644;2022-12-07T15:22:32;27.37;;;11.73;;
18647;SDS011;9453;50.294;18.644;2022-12-07T15:24:59;20.70;;;9.77;;
18647;SDS011;9453;50.294;18.644;2022-12-07T15:27:28;21.40;;;9.47;;
18647;SDS011;9453;50.294;18.644;2022-12-07T15:29:56;14.73;;;6.17;;
18647;SDS011;9453;50.294;18.644;2022-12-07T15:32:23;13.47;;;6.17;;
18647;SDS011;9453;50.294;18.644;2022-12-07T15:34:50;21.43;;;8.47;;
18647;SDS011;9453;50.294;18.644;2022-12-07T15:37:17;14.47;;;6.37;;
18647;SDS011;9453;50.294;18.644;2022-12-07T15:39:44;14.47;;;6.97;;
18647;SDS011;9453;50.294;18.644;2022-12-07T15:42:15;16.93;;;6.77;;
18647;SDS011;9453;50.294;18.644;2022-12-07T15:44:43;16.10;;;6.50;;
18647;SDS011;9453;50.294;18.644;2022-12-07T15:47:28;13.60;;;5.87;;
18647;SDS011;9453;50.294;18.644;2022-12-07T15:49:54;15.87;;;6.03;;
18647;SDS011;9453;50.294;18.644;2022-12-07T15:52:21;19.50;;;8.07;;
18647;SDS011;9453;50.294;18.644;2022-12-07T15:54:48;19.50;;;8.33;;
18647;SDS011;9453;50.294;18.644;2022-12-07T15:57:15;16.77;;;8.30;;
18647;SDS011;9453;50.294;18.644;2022-12-07T15:59:44;16.30;;;7.33;;
18647;SDS011;9453;50.294;18.644;2022-12-07T16:02:11;18.93;;;8.37;;
18647;SDS011;9453;50.294;18.644;2022-12-07T16:04:39;17.73;;;8.03;;
18647;SDS011;9453;50.294;18.644;2022-12-07T16:07:06;15.93;;;7.53;;
18647;SDS011;9453;50.294;18.644;2022-12-07T16:09:35;14.73;;;6.83;;
18647;SDS011;9453;50.294;18.644;2022-12-07T16:12:02;17.33;;;7.50;;
18647;SDS011;9453;50.294;18.644;2022-12-07T16:14:29;15.77;;;6.80;;
18647;SDS011;9453;50.294;18.644;2022-12-07T16:16:59;16.10;;;7.80;;
18647;SDS011;9453;50.294;18.644;2022-12-07T16:19:26;13.70;;;6.40;;
18647;SDS011;9453;50.294;18.644;2022-12-07T16:21:53;13.00;;;6.27;;
18647;SDS011;9453;50.294;18.644;2022-12-07T16:24:20;12.87;;;6.07;;
18647;SDS011;9453;50.294;18.644;2022-12-07T16:26:47;12.13;;;5.50;;
18647;SDS011;9453;50.294;18.644;2022-12-07T16:29:15;6.97;;;4.60;;
18647;SDS011;9453;50.294;18.644;2022-12-07T16:31:42;9.47;;;4.83;;
18647;SDS011;9453;50.294;18.644;2022-12-07T16:34:10;11.60;;;4.70;;
18647;SDS011;9453;50.294;18.644;2022-12-07T16:36:38;9.33;;;4.50;;
18647;SDS011;9453;50.294;18.644;2022-12-07T16:39:06;11.03;;;4.23;;
18647;SDS011;9453;50.294;18.644;2022-12-07T16:41:33;9.10;;;4.47;;
18647;SDS011;9453;50.294;18.644;2022-12-07T16:44:00;12.67;;;5.40;;
18647;SDS011;9453;50.294;18.644;2022-12-07T16:46:29;11.53;;;5.57;;
18647;SDS011;9453;50.294;18.644;2022-12-07T16:48:57;14.17;;;6.40;;
18647;SDS011;9453;50.294;18.644;2022-12-07T16:51:25;21.37;;;7.90;;
18647;SDS011;9453;50.294;18.644;2022-12-07T16:53:53;17.47;;;6.87;;
18647;SDS011;9453;50.294;18.644;2022-12-07T16:56:20;19.97;;;7.40;;
18647;SDS011;9453;50.294;18.644;2022-12-07T16:58:47;19.37;;;7.60;;
18647;SDS011;9453;50.294;18.644;2022-12-07T17:01:15;23.23;;;7.47;;
18647;SDS011;9453;50.294;18.644;2022-12-07T17:03:44;17.00;;;7.17;;
18647;SDS011;9453;50.294;18.644;2022-12-07T17:06:12;16.70;;;6.80;;
18647;SDS011;9453;50.294;18.644;2022-12-07T17:08:41;15.87;;;6.47;;
18647;SDS011;9453;50.294;18.644;2022-12-07T17:11:10;13.60;;;5.60;;
18647;SDS011;9453;50.294;18.644;2022-12-07T17:13:38;9.37;;;4.87;;
18647;SDS011;9453;50.294;18.644;2022-12-07T17:16:23;12.67;;;4.80;;
18647;SDS011;9453;50.294;18.644;2022-12-07T17:18:50;7.20;;;4.27;;
18647;SDS011;9453;50.294;18.644;2022-12-07T17:21:17;10.43;;;4.63;;
18647;SDS011;9453;50.294;18.644;2022-12-07T17:23:46;11.00;;;4.90;;
18647;SDS011;9453;50.294;18.644;2022-12-07T17:26:14;10.77;;;5.23;;
18647;SDS011;9453;50.294;18.644;2022-12-07T17:28:42;11.60;;;4.50;;
18647;SDS011;9453;50.294;18.644;2022-12-07T17:31:10;8.27;;;3.80;;
18647;SDS011;9453;50.294;18.644;2022-12-07T17:33:39;11.00;;;5.03;;
18647;SDS011;9453;50.294;18.644;2022-12-07T17:36:09;9.80;;;4.60;;
18647;SDS011;9453;50.294;18.644;2022-12-07T17:38:37;11.97;;;4.80;;
18647;SDS011;9453;50.294;18.644;2022-12-07T17:44:02;9.70;;;4.37;;
18647;SDS011;9453;50.294;18.644;2022-12-07T17:46:31;9.23;;;4.80;;
18647;SDS011;9453;50.294;18.644;2022-12-07T17:48:58;13.93;;;5.43;;
18647;SDS011;9453;50.294;18.644;2022-12-07T17:51:25;15.87;;;5.30;;
18647;SDS011;9453;50.294;18.644;2022-12-07T17:54:10;12.87;;;5.87;;
18647;SDS011;9453;50.294;18.644;2022-12-07T17:56:41;11.80;;;5.20;;
18647;SDS011;9453;50.294;18.644;2022-12-07T17:59:08;12.73;;;5.17;;
18647;SDS011;9453;50.294;18.644;2022-12-07T18:01:35;14.73;;;5.93;;
18647;SDS011;9453;50.294;18.644;2022-12-07T18:04:03;11.53;;;5.53;;
18647;SDS011;9453;50.294;18.644;2022-12-07T18:06:30;16.77;;;6.47;;
18647;SDS011;9453;50.294;18.644;2022-12-07T18:08:58;18.17;;;7.30;;
18647;SDS011;9453;50.294;18.644;2022-12-07T18:11:25;14.73;;;5.57;;
18647;SDS011;9453;50.294;18.644;2022-12-07T18:13:54;17.27;;;6.33;;
18647;SDS011;9453;50.294;18.644;2022-12-07T18:16:22;16.70;;;6.57;;
18647;SDS011;9453;50.294;18.644;2022-12-07T18:18:51;19.23;;;6.33;;
18647;SDS011;9453;50.294;18.644;2022-12-07T18:21:20;17.47;;;6.47;;
18647;SDS011;9453;50.294;18.644;2022-12-07T18:23:49;16.63;;;6.73;;
18647;SDS011;9453;50.294;18.644;2022-12-07T18:26:18;19.40;;;6.90;;
18647;SDS011;9453;50.294;18.644;2022-12-07T18:28:47;22.37;;;7.07;;
18647;SDS011;9453;50.294;18.644;2022-12-07T18:31:16;18.43;;;6.93;;
18647;SDS011;9453;50.294;18.644;2022-12-07T18:33:44;20.50;;;7.60;;
18647;SDS011;9453;50.294;18.644;2022-12-07T18:36:12;19.23;;;8.17;;
18647;SDS011;9453;50.294;18.644;2022-12-07T18:38:41;18.37;;;8.07;;
18647;SDS011;9453;50.294;18.644;2022-12-07T18:41:08;22.37;;;7.87;;
18647;SDS011;9453;50.294;18.644;2022-12-07T18:43:37;20.00;;;8.17;;
18647;SDS011;9453;50.294;18.644;2022-12-07T18:46:08;20.93;;;8.67;;
18647;SDS011;9453;50.294;18.644;2022-12-07T18:48:39;21.77;;;7.87;;
18647;SDS011;9453;50.294;18.644;2022-12-07T18:51:07;19.60;;;8.40;;
18647;SDS011;9453;50.294;18.644;2022-12-07T18:53:35;18.10;;;8.13;;
18647;SDS011;9453;50.294;18.644;2022-12-07T18:56:03;20.03;;;7.73;;
18647;SDS011;9453;50.294;18.644;2022-12-07T18:58:32;19.97;;;8.53;;
18647;SDS011;9453;50.294;18.644;2022-12-07T19:00:59;17.63;;;7.17;;
18647;SDS011;9453;50.294;18.644;2022-12-07T19:03:27;16.30;;;7.53;;
18647;SDS011;9453;50.294;18.644;2022-12-07T19:05:56;18.10;;;6.83;;
18647;SDS011;9453;50.294;18.644;2022-12-07T19:08:24;15.93;;;6.70;;
18647;SDS011;9453;50.294;18.644;2022-12-07T19:10:51;17.13;;;6.97;;
18647;SDS011;9453;50.294;18.644;2022-12-07T19:13:18;16.30;;;6.93;;
18647;SDS011;9453;50.294;18.644;2022-12-07T19:15:45;18.83;;;6.70;;
18647;SDS011;9453;50.294;18.644;2022-12-07T19:18:12;17.77;;;7.67;;
18647;SDS011;9453;50.294;18.644;2022-12-07T19:20:39;20.80;;;7.83;;
18647;SDS011;9453;50.294;18.644;2022-12-07T19:23:07;16.07;;;7.33;;
18647;SDS011;9453;50.294;18.644;2022-12-07T19:25:34;19.13;;;8.00;;
18647;SDS011;9453;50.294;18.644;2022-12-07T19:28:04;22.30;;;8.50;;
18647;SDS011;9453;50.294;18.644;2022-12-07T19:30:32;21.73;;;7.63;;
18647;SDS011;9453;50.294;18.644;2022-12-07T19:32:59;20.23;;;7.77;;
18647;SDS011;9453;50.294;18.644;2022-12-07T19:35:26;15.30;;;6.90;;
18647;SDS011;9453;50.294;18.644;2022-12-07T19:37:53;14.67;;;7.07;;
18647;SDS011;9453;50.294;18.644;2022-12-07T19:40:21;15.20;;;6.90;;
18647;SDS011;9453;50.294;18.644;2022-12-07T19:42:48;18.07;;;6.80;;
18647;SDS011;9453;50.294;18.644;2022-12-07T19:45:15;18.67;;;7.37;;
18647;SDS011;9453;50.294;18.644;2022-12-07T19:47:42;15.73;;;7.30;;
18647;SDS011;9453;50.294;18.644;2022-12-07T19:50:09;17.80;;;7.30;;
18647;SDS011;9453;50.294;18.644;2022-12-07T19:52:36;18.23;;;6.83;;
18647;SDS011;9453;50.294;18.644;2022-12-07T19:55:03;22.17;;;7.63;;
18647;SDS011;9453;50.294;18.644;2022-12-07T19:57:33;18.10;;;6.73;;
18647;SDS011;9453;50.294;18.644;2022-12-07T20:00:00;11.73;;;6.10;;
18647;SDS011;9453;50.294;18.644;2022-12-07T20:02:30;16.63;;;6.80;;
18647;SDS011;9453;50.294;18.644;2022-12-07T20:04:57;13.83;;;6.30;;
18647;SDS011;9453;50.294;18.644;2022-12-07T20:07:24;15.53;;;6.73;;
18647;SDS011;9453;50.294;18.644;2022-12-07T20:09:51;18.93;;;7.83;;
18647;SDS011;9453;50.294;18.644;2022-12-07T20:12:18;19.20;;;8.23;;
18647;SDS011;9453;50.294;18.644;2022-12-07T20:15:04;19.53;;;9.10;;
18647;SDS011;9453;50.294;18.644;2022-12-07T20:17:32;23.90;;;9.73;;
18647;SDS011;9453;50.294;18.644;2022-12-07T20:19:59;18.17;;;8.23;;
18647;SDS011;9453;50.294;18.644;2022-12-07T20:22:26;25.17;;;8.53;;
18647;SDS011;9453;50.294;18.644;2022-12-07T20:24:53;18.77;;;8.30;;
18647;SDS011;9453;50.294;18.644;2022-12-07T20:27:20;19.20;;;8.23;;
18647;SDS011;9453;50.294;18.644;2022-12-07T20:29:48;39.27;;;12.67;;
18647;SDS011;9453;50.294;18.644;2022-12-07T20:32:16;90.07;;;21.70;;
18647;SDS011;9453;50.294;18.644;2022-12-07T20:34:43;137.57;;;30.57;;
18647;SDS011;9453;50.294;18.644;2022-12-07T20:37:10;107.70;;;25.70;;
18647;SDS011;9453;50.294;18.644;2022-12-07T20:39:38;92.50;;;23.33;;
18647;SDS011;9453;50.294;18.644;2022-12-07T20:42:05;57.97;;;17.70;;